Meteo Bahía Blanca

ESTACION METEOROLOGICA ACBB

17/08/2022 22:17:13
TEMPERATURA SENSACION TERMICA PUNTO ROCIO

5.5 ºC

5.5 ºC

-3.1 ºC

VIENTO DIRECCION VELOCIDAD RAFAGAS

243

4.3 KM/H

5.5 KM/H

PRESION HUMEDAD

1016.1 hPa

54 %

METAR SAZB

18 - 01:00METAR SAZB 180100Z 22006KT CAVOK 05/M03 Q1015 RMK PP000 =

PREVISION VIENTOS